Carmel, CA

6:32 PM PDT on September 20, 2014 (GMT -0700)
Taza - Country Club Drive | Change Station
CLOSE
Current Station
Personal Weather Station
Location: Carmel Valley, CA
Elevation: 430 ft
Nearby Weather Stations

Elev 430 ft 36.49 °N, 121.74 °W | Updated 8 minutes ago

Partly Cloudy
Partly Cloudy
66.6 °F
Feels Like 66.6 °F
N
4.7
Wind Variable Wind from WNW

Today
High -- | Low -- °F
--% Chance of Precip.
Yesterday
High -- | Low -- °F
Precip. -- in
6:53 AM 7:06 PM
Waning Crescent, 9% visible
Pressure 29.97 in
Visibility 10.0 miles
Clouds Overcast 1100 ft
Dew Point 55 °F
Humidity 66%
Rainfall 0.00 in
Snow Depth 0 in , 0 in , 0 in
UV 0 out of 12
Pollen 4.00 out of 12
Air Quality Not available.
Flu Activity Not available.
METAR KMRY 210054Z 24009KT 10SM OVC011 18/14 A2994 RMK AO2 SLP148 T01830144

More Conditions Fewer Conditions

Pressure 29.97 in
Visibility 10.0 miles
Clouds Overcast 1100 ft
Dew Point 55 °F
Humidity 66%
Rainfall 0.00 in
Snow Depth 0 in , 0 in , 0 in
UV 0 out of 12
Pollen 4.00 out of 12
Air Quality Not available.
Flu Activity Not available.
METAR KMRY 210054Z 24009KT 10SM OVC011 18/14 A2994 RMK AO2 SLP148 T01830144

More Conditions Fewer Conditions

10-Day Weather Forecast

Almanac

Astronomy

Sep. 20, 2014 Rise Set
Actual Time 6:53 AM PDT 7:06 PM PDT
Civil Twilight 6:27 AM PDT 7:32 PM PDT
Nautical Twilight 5:57 AM PDT 8:02 PM PDT
Astronomical Twilight 5:27 AM PDT 8:33 PM PDT
Moon 3:41 AM PDT (9/20) 5:09 PM PDT (9/20)
Length of Visible Light 13h 04m
Length of Day
12h 13m
Tomorrow will be 2m 17s shorter.
Waning Crescent, 9% of the Moon is Illuminated
Today
Waning Crescent
Sep 24
New
Oct 1
First Quarter
Oct 8
Full
Oct 15
Last Quarter

Today's Extremes

State Highs State Lows

Community

WunderPhotos

Upload Photos

1,755,032 photos uploaded!

WunderBlogs® & News

Nearby

Snow Depth

Station Depth Elevation
CSS Lab 0 in 6900 ft
Spratt Creek 0 in 6200 ft
Monitor Pass 0 in 8350 ft
Leavitt Meadows 0 in 7200 ft
Burnside Lake 0 in 8139 ft

Earthquake Activity

City Distance Mag. Time & Date
Livermore, California 85 miles 2.6 3:37 AM PDT
2014-09-19
Minimum magnitude displayed is 2.5.

Coastal Water Temperatures

Place Temperature
Monterey, CA 63.0 °F
Port San Luis, CA 61.0 °F

Nearby Weather Stations